sensor_id;sensor_type;location;lat;lon;timestamp;P1;durP1;ratioP1;P2;durP2;ratioP2
48006;SDS011;33771;48.180;11.400;2022-12-18T00:01:14;72.70;;;31.93;;
48006;SDS011;33771;48.180;11.400;2022-12-18T00:03:40;63.33;;;26.80;;
48006;SDS011;33771;48.180;11.400;2022-12-18T00:06:05;70.30;;;30.53;;
48006;SDS011;33771;48.180;11.400;2022-12-18T00:08:31;72.63;;;30.70;;
48006;SDS011;33771;48.180;11.400;2022-12-18T00:11:02;65.50;;;29.20;;
48006;SDS011;33771;48.180;11.400;2022-12-18T00:13:29;72.43;;;30.57;;
48006;SDS011;33771;48.180;11.400;2022-12-18T00:15:55;70.00;;;29.67;;
48006;SDS011;33771;48.180;11.400;2022-12-18T00:18:25;74.20;;;30.13;;
48006;SDS011;33771;48.180;11.400;2022-12-18T00:20:51;79.37;;;32.37;;
48006;SDS011;33771;48.180;11.400;2022-12-18T00:23:16;81.00;;;33.70;;
48006;SDS011;33771;48.180;11.400;2022-12-18T00:25:42;77.53;;;32.47;;
48006;SDS011;33771;48.180;11.400;2022-12-18T00:28:07;69.93;;;30.23;;
48006;SDS011;33771;48.180;11.400;2022-12-18T00:30:33;82.13;;;32.77;;
48006;SDS011;33771;48.180;11.400;2022-12-18T00:32:59;76.37;;;32.87;;
48006;SDS011;33771;48.180;11.400;2022-12-18T00:35:24;76.37;;;30.87;;
48006;SDS011;33771;48.180;11.400;2022-12-18T00:37:50;77.90;;;31.47;;
48006;SDS011;33771;48.180;11.400;2022-12-18T00:40:15;80.10;;;32.00;;
48006;SDS011;33771;48.180;11.400;2022-12-18T00:42:41;89.27;;;32.80;;
48006;SDS011;33771;48.180;11.400;2022-12-18T00:45:23;88.73;;;34.03;;
48006;SDS011;33771;48.180;11.400;2022-12-18T00:47:54;76.97;;;33.33;;
48006;SDS011;33771;48.180;11.400;2022-12-18T00:50:20;83.10;;;32.07;;
48006;SDS011;33771;48.180;11.400;2022-12-18T00:52:46;82.33;;;33.27;;
48006;SDS011;33771;48.180;11.400;2022-12-18T00:55:12;71.60;;;31.13;;
48006;SDS011;33771;48.180;11.400;2022-12-18T00:57:38;76.73;;;31.27;;
48006;SDS011;33771;48.180;11.400;2022-12-18T01:00:06;79.33;;;32.40;;
48006;SDS011;33771;48.180;11.400;2022-12-18T01:02:33;80.83;;;33.57;;
48006;SDS011;33771;48.180;11.400;2022-12-18T01:04:59;85.37;;;31.97;;
48006;SDS011;33771;48.180;11.400;2022-12-18T01:07:25;88.33;;;33.83;;
48006;SDS011;33771;48.180;11.400;2022-12-18T01:09:50;86.67;;;32.27;;
48006;SDS011;33771;48.180;11.400;2022-12-18T01:12:16;83.23;;;31.87;;
48006;SDS011;33771;48.180;11.400;2022-12-18T01:14:41;85.57;;;32.47;;
48006;SDS011;33771;48.180;11.400;2022-12-18T01:17:07;97.87;;;33.27;;
48006;SDS011;33771;48.180;11.400;2022-12-18T01:19:32;98.77;;;33.17;;
48006;SDS011;33771;48.180;11.400;2022-12-18T01:21:58;99.87;;;32.87;;
48006;SDS011;33771;48.180;11.400;2022-12-18T01:24:24;92.13;;;31.77;;
48006;SDS011;33771;48.180;11.400;2022-12-18T01:26:50;90.67;;;33.47;;
48006;SDS011;33771;48.180;11.400;2022-12-18T01:29:15;93.50;;;33.83;;
48006;SDS011;33771;48.180;11.400;2022-12-18T01:31:41;89.73;;;33.20;;
48006;SDS011;33771;48.180;11.400;2022-12-18T01:34:07;86.43;;;32.07;;
48006;SDS011;33771;48.180;11.400;2022-12-18T01:36:34;84.23;;;30.00;;
48006;SDS011;33771;48.180;11.400;2022-12-18T01:39:06;81.83;;;31.90;;
48006;SDS011;33771;48.180;11.400;2022-12-18T01:41:36;77.23;;;31.30;;
48006;SDS011;33771;48.180;11.400;2022-12-18T01:50:04;79.47;;;29.77;;
48006;SDS011;33771;48.180;11.400;2022-12-18T01:52:42;81.07;;;29.90;;
48006;SDS011;33771;48.180;11.400;2022-12-18T01:55:11;83.50;;;30.07;;
48006;SDS011;33771;48.180;11.400;2022-12-18T01:57:39;75.87;;;28.03;;
48006;SDS011;33771;48.180;11.400;2022-12-18T02:00:09;81.90;;;28.70;;
48006;SDS011;33771;48.180;11.400;2022-12-18T02:02:37;78.90;;;28.80;;
48006;SDS011;33771;48.180;11.400;2022-12-18T02:05:05;83.93;;;28.60;;
48006;SDS011;33771;48.180;11.400;2022-12-18T02:10:06;85.17;;;30.47;;
48006;SDS011;33771;48.180;11.400;2022-12-18T02:16:21;87.03;;;31.17;;
48006;SDS011;33771;48.180;11.400;2022-12-18T02:18:42;84.37;;;30.93;;
48006;SDS011;33771;48.180;11.400;2022-12-18T02:23:51;90.77;;;31.40;;
48006;SDS011;33771;48.180;11.400;2022-12-18T02:26:30;85.70;;;28.83;;
48006;SDS011;33771;48.180;11.400;2022-12-18T02:29:08;97.53;;;30.53;;
48006;SDS011;33771;48.180;11.400;2022-12-18T02:31:57;81.90;;;30.67;;
48006;SDS011;33771;48.180;11.400;2022-12-18T02:34:32;86.20;;;32.53;;
48006;SDS011;33771;48.180;11.400;2022-12-18T02:37:03;81.97;;;30.37;;
48006;SDS011;33771;48.180;11.400;2022-12-18T02:39:33;80.63;;;30.30;;
48006;SDS011;33771;48.180;11.400;2022-12-18T02:42:00;78.87;;;29.37;;
48006;SDS011;33771;48.180;11.400;2022-12-18T02:44:32;70.13;;;26.83;;
48006;SDS011;33771;48.180;11.400;2022-12-18T02:47:08;69.67;;;26.57;;
48006;SDS011;33771;48.180;11.400;2022-12-18T02:55:45;65.93;;;25.90;;
48006;SDS011;33771;48.180;11.400;2022-12-18T02:58:21;66.03;;;26.73;;
48006;SDS011;33771;48.180;11.400;2022-12-18T03:01:19;60.60;;;25.73;;
48006;SDS011;33771;48.180;11.400;2022-12-18T03:03:52;72.50;;;26.70;;
48006;SDS011;33771;48.180;11.400;2022-12-18T03:06:42;67.43;;;28.20;;
48006;SDS011;33771;48.180;11.400;2022-12-18T03:09:14;68.00;;;26.63;;
48006;SDS011;33771;48.180;11.400;2022-12-18T03:11:47;66.13;;;26.80;;
48006;SDS011;33771;48.180;11.400;2022-12-18T03:14:40;69.20;;;27.43;;
48006;SDS011;33771;48.180;11.400;2022-12-18T03:17:09;68.53;;;28.37;;
48006;SDS011;33771;48.180;11.400;2022-12-18T03:19:38;74.47;;;28.73;;
48006;SDS011;33771;48.180;11.400;2022-12-18T03:22:07;75.47;;;28.93;;
48006;SDS011;33771;48.180;11.400;2022-12-18T03:24:34;78.40;;;29.83;;
48006;SDS011;33771;48.180;11.400;2022-12-18T03:27:04;83.83;;;29.73;;
48006;SDS011;33771;48.180;11.400;2022-12-18T03:29:42;81.10;;;31.50;;
48006;SDS011;33771;48.180;11.400;2022-12-18T03:32:25;84.13;;;32.17;;
48006;SDS011;33771;48.180;11.400;2022-12-18T03:34:55;83.77;;;32.53;;
48006;SDS011;33771;48.180;11.400;2022-12-18T03:37:24;88.57;;;32.27;;
48006;SDS011;33771;48.180;11.400;2022-12-18T03:39:50;85.90;;;33.23;;
48006;SDS011;33771;48.180;11.400;2022-12-18T03:44:57;89.03;;;34.77;;
48006;SDS011;33771;48.180;11.400;2022-12-18T03:47:29;94.97;;;35.00;;
48006;SDS011;33771;48.180;11.400;2022-12-18T03:52:54;92.83;;;33.40;;
48006;SDS011;33771;48.180;11.400;2022-12-18T03:55:21;82.77;;;32.50;;
48006;SDS011;33771;48.180;11.400;2022-12-18T03:57:48;88.40;;;33.27;;
48006;SDS011;33771;48.180;11.400;2022-12-18T04:00:17;92.90;;;34.57;;
48006;SDS011;33771;48.180;11.400;2022-12-18T04:02:44;89.60;;;32.87;;
48006;SDS011;33771;48.180;11.400;2022-12-18T04:05:16;87.30;;;33.33;;
48006;SDS011;33771;48.180;11.400;2022-12-18T04:07:43;87.80;;;34.27;;
48006;SDS011;33771;48.180;11.400;2022-12-18T04:10:11;87.83;;;32.13;;
48006;SDS011;33771;48.180;11.400;2022-12-18T04:12:38;89.03;;;35.73;;
48006;SDS011;33771;48.180;11.400;2022-12-18T04:15:04;95.00;;;35.53;;
48006;SDS011;33771;48.180;11.400;2022-12-18T04:17:31;97.27;;;35.73;;
48006;SDS011;33771;48.180;11.400;2022-12-18T04:19:56;90.87;;;33.83;;
48006;SDS011;33771;48.180;11.400;2022-12-18T04:22:22;87.80;;;32.80;;
48006;SDS011;33771;48.180;11.400;2022-12-18T04:24:47;85.30;;;33.17;;
48006;SDS011;33771;48.180;11.400;2022-12-18T04:27:13;85.77;;;33.63;;
48006;SDS011;33771;48.180;11.400;2022-12-18T04:29:39;80.43;;;30.70;;
48006;SDS011;33771;48.180;11.400;2022-12-18T04:32:04;90.53;;;36.87;;
48006;SDS011;33771;48.180;11.400;2022-12-18T04:34:30;78.87;;;33.03;;
48006;SDS011;33771;48.180;11.400;2022-12-18T04:36:55;87.13;;;33.17;;
48006;SDS011;33771;48.180;11.400;2022-12-18T04:39:21;83.57;;;32.67;;
48006;SDS011;33771;48.180;11.400;2022-12-18T04:41:47;89.40;;;33.57;;
48006;SDS011;33771;48.180;11.400;2022-12-18T04:44:12;78.23;;;32.53;;
48006;SDS011;33771;48.180;11.400;2022-12-18T04:46:38;79.00;;;32.10;;
48006;SDS011;33771;48.180;11.400;2022-12-18T04:49:04;84.97;;;31.63;;
48006;SDS011;33771;48.180;11.400;2022-12-18T04:51:29;83.53;;;31.73;;
48006;SDS011;33771;48.180;11.400;2022-12-18T04:53:55;86.97;;;31.37;;
48006;SDS011;33771;48.180;11.400;2022-12-18T04:56:20;83.37;;;31.80;;
48006;SDS011;33771;48.180;11.400;2022-12-18T04:58:46;84.50;;;34.37;;
48006;SDS011;33771;48.180;11.400;2022-12-18T05:01:12;78.97;;;32.20;;
48006;SDS011;33771;48.180;11.400;2022-12-18T05:03:39;78.47;;;31.43;;
48006;SDS011;33771;48.180;11.400;2022-12-18T05:06:05;80.20;;;31.73;;
48006;SDS011;33771;48.180;11.400;2022-12-18T05:08:32;82.40;;;31.93;;
48006;SDS011;33771;48.180;11.400;2022-12-18T05:10:59;70.63;;;29.00;;
48006;SDS011;33771;48.180;11.400;2022-12-18T05:13:25;79.57;;;31.37;;
48006;SDS011;33771;48.180;11.400;2022-12-18T05:15:52;76.87;;;31.23;;
48006;SDS011;33771;48.180;11.400;2022-12-18T05:18:18;78.80;;;30.47;;
48006;SDS011;33771;48.180;11.400;2022-12-18T05:20:43;75.80;;;30.83;;
48006;SDS011;33771;48.180;11.400;2022-12-18T05:23:09;77.73;;;30.83;;
48006;SDS011;33771;48.180;11.400;2022-12-18T05:25:34;70.63;;;28.83;;
48006;SDS011;33771;48.180;11.400;2022-12-18T05:28:00;78.53;;;31.07;;
48006;SDS011;33771;48.180;11.400;2022-12-18T05:30:26;79.67;;;29.77;;
48006;SDS011;33771;48.180;11.400;2022-12-18T05:32:52;75.47;;;29.43;;
48006;SDS011;33771;48.180;11.400;2022-12-18T05:35:18;69.87;;;28.00;;
48006;SDS011;33771;48.180;11.400;2022-12-18T05:37:44;70.17;;;28.27;;
48006;SDS011;33771;48.180;11.400;2022-12-18T05:40:09;74.67;;;31.47;;
48006;SDS011;33771;48.180;11.400;2022-12-18T05:42:36;75.53;;;28.57;;
48006;SDS011;33771;48.180;11.400;2022-12-18T05:45:02;75.60;;;28.80;;
48006;SDS011;33771;48.180;11.400;2022-12-18T05:47:28;70.87;;;28.77;;
48006;SDS011;33771;48.180;11.400;2022-12-18T05:49:54;69.33;;;28.20;;
48006;SDS011;33771;48.180;11.400;2022-12-18T05:52:20;72.83;;;29.00;;
48006;SDS011;33771;48.180;11.400;2022-12-18T05:54:45;85.17;;;32.97;;
48006;SDS011;33771;48.180;11.400;2022-12-18T05:57:11;97.57;;;44.20;;
48006;SDS011;33771;48.180;11.400;2022-12-18T05:59:36;75.60;;;32.23;;
48006;SDS011;33771;48.180;11.400;2022-12-18T06:02:02;73.33;;;28.77;;
48006;SDS011;33771;48.180;11.400;2022-12-18T06:04:27;67.37;;;28.10;;
48006;SDS011;33771;48.180;11.400;2022-12-18T06:06:53;66.93;;;28.03;;
48006;SDS011;33771;48.180;11.400;2022-12-18T06:09:19;74.30;;;30.33;;
48006;SDS011;33771;48.180;11.400;2022-12-18T06:11:45;79.83;;;35.03;;
48006;SDS011;33771;48.180;11.400;2022-12-18T06:14:10;74.13;;;30.53;;
48006;SDS011;33771;48.180;11.400;2022-12-18T06:16:36;68.67;;;28.23;;
48006;SDS011;33771;48.180;11.400;2022-12-18T06:19:03;74.43;;;31.17;;
48006;SDS011;33771;48.180;11.400;2022-12-18T06:21:30;72.17;;;31.03;;
48006;SDS011;33771;48.180;11.400;2022-12-18T06:23:56;67.57;;;28.30;;
48006;SDS011;33771;48.180;11.400;2022-12-18T06:26:22;64.17;;;28.80;;
48006;SDS011;33771;48.180;11.400;2022-12-18T06:28:47;68.80;;;28.87;;
48006;SDS011;33771;48.180;11.400;2022-12-18T06:31:13;72.67;;;29.17;;
48006;SDS011;33771;48.180;11.400;2022-12-18T06:33:39;70.10;;;28.90;;
48006;SDS011;33771;48.180;11.400;2022-12-18T06:36:06;73.77;;;30.53;;
48006;SDS011;33771;48.180;11.400;2022-12-18T06:38:33;96.17;;;42.13;;
48006;SDS011;33771;48.180;11.400;2022-12-18T06:41:00;77.23;;;34.03;;
48006;SDS011;33771;48.180;11.400;2022-12-18T06:43:30;64.97;;;27.43;;
48006;SDS011;33771;48.180;11.400;2022-12-18T06:45:59;68.67;;;29.33;;
48006;SDS011;33771;48.180;11.400;2022-12-18T06:48:25;68.77;;;30.63;;
48006;SDS011;33771;48.180;11.400;2022-12-18T06:50:50;65.80;;;29.10;;
48006;SDS011;33771;48.180;11.400;2022-12-18T06:53:16;67.67;;;28.27;;
48006;SDS011;33771;48.180;11.400;2022-12-18T06:55:42;61.97;;;28.87;;
48006;SDS011;33771;48.180;11.400;2022-12-18T06:58:07;67.93;;;31.90;;
48006;SDS011;33771;48.180;11.400;2022-12-18T07:00:33;69.50;;;29.27;;
48006;SDS011;33771;48.180;11.400;2022-12-18T07:02:59;62.43;;;28.67;;
48006;SDS011;33771;48.180;11.400;2022-12-18T07:05:24;67.07;;;31.47;;
48006;SDS011;33771;48.180;11.400;2022-12-18T07:07:50;71.17;;;28.73;;
48006;SDS011;33771;48.180;11.400;2022-12-18T07:10:15;66.03;;;27.30;;
48006;SDS011;33771;48.180;11.400;2022-12-18T07:12:41;64.97;;;27.10;;
48006;SDS011;33771;48.180;11.400;2022-12-18T07:15:07;63.90;;;26.73;;
48006;SDS011;33771;48.180;11.400;2022-12-18T07:17:32;63.10;;;26.63;;
48006;SDS011;33771;48.180;11.400;2022-12-18T07:19:58;57.07;;;24.47;;
48006;SDS011;33771;48.180;11.400;2022-12-18T07:22:24;61.80;;;25.90;;
48006;SDS011;33771;48.180;11.400;2022-12-18T07:24:51;62.77;;;25.90;;
48006;SDS011;33771;48.180;11.400;2022-12-18T07:27:16;59.07;;;23.87;;
48006;SDS011;33771;48.180;11.400;2022-12-18T07:29:42;62.23;;;27.00;;
48006;SDS011;33771;48.180;11.400;2022-12-18T07:32:07;60.80;;;26.70;;
48006;SDS011;33771;48.180;11.400;2022-12-18T07:34:34;66.90;;;29.13;;
48006;SDS011;33771;48.180;11.400;2022-12-18T07:37:00;61.73;;;28.03;;
48006;SDS011;33771;48.180;11.400;2022-12-18T07:39:25;79.57;;;37.33;;
48006;SDS011;33771;48.180;11.400;2022-12-18T07:41:51;65.50;;;26.67;;
48006;SDS011;33771;48.180;11.400;2022-12-18T07:44:35;63.20;;;26.13;;
48006;SDS011;33771;48.180;11.400;2022-12-18T07:47:01;60.80;;;25.10;;
48006;SDS011;33771;48.180;11.400;2022-12-18T07:49:27;67.53;;;25.37;;
48006;SDS011;33771;48.180;11.400;2022-12-18T07:51:54;65.37;;;27.40;;
48006;SDS011;33771;48.180;11.400;2022-12-18T07:54:21;62.87;;;26.77;;
48006;SDS011;33771;48.180;11.400;2022-12-18T07:56:48;65.53;;;28.10;;
48006;SDS011;33771;48.180;11.400;2022-12-18T07:59:13;58.67;;;23.27;;
48006;SDS011;33771;48.180;11.400;2022-12-18T08:01:39;64.57;;;26.60;;
48006;SDS011;33771;48.180;11.400;2022-12-18T08:04:04;62.73;;;26.17;;
48006;SDS011;33771;48.180;11.400;2022-12-18T08:06:30;60.90;;;25.57;;
48006;SDS011;33771;48.180;11.400;2022-12-18T08:08:56;59.70;;;25.20;;
48006;SDS011;33771;48.180;11.400;2022-12-18T08:11:22;62.70;;;25.33;;
48006;SDS011;33771;48.180;11.400;2022-12-18T08:13:49;64.20;;;26.03;;
48006;SDS011;33771;48.180;11.400;2022-12-18T08:16:15;58.73;;;24.90;;
48006;SDS011;33771;48.180;11.400;2022-12-18T08:18:41;60.93;;;24.23;;
48006;SDS011;33771;48.180;11.400;2022-12-18T08:21:10;58.80;;;24.20;;
48006;SDS011;33771;48.180;11.400;2022-12-18T08:23:41;57.15;;;24.52;;
48006;SDS011;33771;48.180;11.400;2022-12-18T08:26:07;58.10;;;26.27;;
48006;SDS011;33771;48.180;11.400;2022-12-18T08:28:33;57.63;;;25.67;;
48006;SDS011;33771;48.180;11.400;2022-12-18T08:30:59;62.63;;;26.13;;
48006;SDS011;33771;48.180;11.400;2022-12-18T08:33:25;57.40;;;24.57;;
48006;SDS011;33771;48.180;11.400;2022-12-18T08:35:51;62.93;;;25.77;;
48006;SDS011;33771;48.180;11.400;2022-12-18T08:38:17;62.83;;;26.47;;
48006;SDS011;33771;48.180;11.400;2022-12-18T08:40:43;56.40;;;23.60;;
48006;SDS011;33771;48.180;11.400;2022-12-18T08:43:09;60.63;;;25.20;;
48006;SDS011;33771;48.180;11.400;2022-12-18T08:45:54;52.78;;;23.85;;
48006;SDS011;33771;48.180;11.400;2022-12-18T08:48:20;55.73;;;24.43;;
48006;SDS011;33771;48.180;11.400;2022-12-18T08:50:56;56.80;;;25.53;;
48006;SDS011;33771;48.180;11.400;2022-12-18T08:53:23;56.17;;;23.43;;
48006;SDS011;33771;48.180;11.400;2022-12-18T08:55:49;56.13;;;25.03;;
48006;SDS011;33771;48.180;11.400;2022-12-18T08:58:14;54.87;;;24.80;;
48006;SDS011;33771;48.180;11.400;2022-12-18T09:00:40;70.37;;;29.60;;
48006;SDS011;33771;48.180;11.400;2022-12-18T09:03:10;59.03;;;26.40;;
48006;SDS011;33771;48.180;11.400;2022-12-18T09:05:39;57.37;;;24.73;;
48006;SDS011;33771;48.180;11.400;2022-12-18T09:08:05;53.43;;;24.73;;
48006;SDS011;33771;48.180;11.400;2022-12-18T09:10:31;61.60;;;28.03;;
48006;SDS011;33771;48.180;11.400;2022-12-18T09:12:56;61.63;;;30.00;;
48006;SDS011;33771;48.180;11.400;2022-12-18T09:15:22;55.57;;;25.53;;
48006;SDS011;33771;48.180;11.400;2022-12-18T09:17:48;67.63;;;30.80;;
48006;SDS011;33771;48.180;11.400;2022-12-18T09:20:14;56.30;;;26.63;;
48006;SDS011;33771;48.180;11.400;2022-12-18T09:22:40;60.77;;;27.57;;
48006;SDS011;33771;48.180;11.400;2022-12-18T09:25:06;60.10;;;26.80;;
48006;SDS011;33771;48.180;11.400;2022-12-18T09:27:35;55.30;;;24.13;;
48006;SDS011;33771;48.180;11.400;2022-12-18T09:30:01;58.03;;;25.47;;
48006;SDS011;33771;48.180;11.400;2022-12-18T09:32:27;62.47;;;28.07;;
48006;SDS011;33771;48.180;11.400;2022-12-18T09:34:53;62.37;;;29.00;;
48006;SDS011;33771;48.180;11.400;2022-12-18T09:37:18;62.97;;;29.13;;
48006;SDS011;33771;48.180;11.400;2022-12-18T09:39:44;54.13;;;23.80;;
48006;SDS011;33771;48.180;11.400;2022-12-18T09:42:16;50.93;;;23.87;;
48006;SDS011;33771;48.180;11.400;2022-12-18T09:44:47;60.37;;;26.90;;
48006;SDS011;33771;48.180;11.400;2022-12-18T09:47:23;54.53;;;26.60;;
48006;SDS011;33771;48.180;11.400;2022-12-18T09:49:54;56.97;;;26.70;;
48006;SDS011;33771;48.180;11.400;2022-12-18T09:52:35;53.73;;;23.33;;
48006;SDS011;33771;48.180;11.400;2022-12-18T09:55:11;57.23;;;26.07;;
48006;SDS011;33771;48.180;11.400;2022-12-18T09:57:45;57.67;;;25.53;;
48006;SDS011;33771;48.180;11.400;2022-12-18T10:00:20;65.07;;;28.37;;
48006;SDS011;33771;48.180;11.400;2022-12-18T10:02:47;50.73;;;23.73;;
48006;SDS011;33771;48.180;11.400;2022-12-18T10:05:16;50.47;;;23.87;;
48006;SDS011;33771;48.180;11.400;2022-12-18T10:07:50;52.57;;;24.07;;
48006;SDS011;33771;48.180;11.400;2022-12-18T10:21:25;40.17;;;20.20;;
48006;SDS011;33771;48.180;11.400;2022-12-18T10:24:14;42.60;;;19.70;;
48006;SDS011;33771;48.180;11.400;2022-12-18T10:26:43;43.63;;;20.53;;
48006;SDS011;33771;48.180;11.400;2022-12-18T10:29:10;43.53;;;20.93;;
48006;SDS011;33771;48.180;11.400;2022-12-18T10:31:37;41.80;;;21.60;;
48006;SDS011;33771;48.180;11.400;2022-12-18T10:34:03;41.43;;;20.97;;
48006;SDS011;33771;48.180;11.400;2022-12-18T10:36:29;41.77;;;20.50;;
48006;SDS011;33771;48.180;11.400;2022-12-18T10:39:04;40.90;;;20.60;;
48006;SDS011;33771;48.180;11.400;2022-12-18T10:41:47;40.50;;;19.30;;
48006;SDS011;33771;48.180;11.400;2022-12-18T10:46:42;45.33;;;20.40;;
48006;SDS011;33771;48.180;11.400;2022-12-18T10:49:18;43.60;;;20.20;;
48006;SDS011;33771;48.180;11.400;2022-12-18T10:51:48;42.87;;;21.17;;
48006;SDS011;33771;48.180;11.400;2022-12-18T10:59:16;45.13;;;20.00;;
48006;SDS011;33771;48.180;11.400;2022-12-18T11:01:53;41.13;;;18.77;;
48006;SDS011;33771;48.180;11.400;2022-12-18T11:04:28;43.07;;;21.43;;
48006;SDS011;33771;48.180;11.400;2022-12-18T11:06:58;43.63;;;22.23;;
48006;SDS011;33771;48.180;11.400;2022-12-18T11:09:30;45.87;;;20.70;;
48006;SDS011;33771;48.180;11.400;2022-12-18T11:12:01;46.00;;;21.55;;
48006;SDS011;33771;48.180;11.400;2022-12-18T11:14:44;45.90;;;20.97;;
48006;SDS011;33771;48.180;11.400;2022-12-18T11:17:20;44.80;;;21.33;;
48006;SDS011;33771;48.180;11.400;2022-12-18T11:19:57;45.20;;;21.37;;
48006;SDS011;33771;48.180;11.400;2022-12-18T11:22:25;50.90;;;21.90;;
48006;SDS011;33771;48.180;11.400;2022-12-18T11:27:35;43.22;;;21.27;;
48006;SDS011;33771;48.180;11.400;2022-12-18T11:30:08;47.23;;;22.57;;
48006;SDS011;33771;48.180;11.400;2022-12-18T11:32:39;45.03;;;21.30;;
48006;SDS011;33771;48.180;11.400;2022-12-18T11:35:21;46.13;;;21.43;;
48006;SDS011;33771;48.180;11.400;2022-12-18T11:38:49;42.63;;;20.13;;
48006;SDS011;33771;48.180;11.400;2022-12-18T11:43:50;44.40;;;22.27;;
48006;SDS011;33771;48.180;11.400;2022-12-18T11:46:34;48.07;;;22.60;;
48006;SDS011;33771;48.180;11.400;2022-12-18T11:49:12;48.93;;;22.00;;
48006;SDS011;33771;48.180;11.400;2022-12-18T11:51:49;52.10;;;24.90;;
48006;SDS011;33771;48.180;11.400;2022-12-18T11:54:23;57.27;;;26.30;;
48006;SDS011;33771;48.180;11.400;2022-12-18T11:56:50;59.83;;;25.90;;
48006;SDS011;33771;48.180;11.400;2022-12-18T12:29:04;58.07;;;26.70;;
48006;SDS011;33771;48.180;11.400;2022-12-18T12:40:14;63.30;;;28.90;;
48006;SDS011;33771;48.180;11.400;2022-12-18T12:42:50;63.17;;;27.67;;
48006;SDS011;33771;48.180;11.400;2022-12-18T12:45:51;64.50;;;27.63;;
48006;SDS011;33771;48.180;11.400;2022-12-18T12:50:59;63.80;;;29.00;;
48006;SDS011;33771;48.180;11.400;2022-12-18T12:53:52;54.97;;;23.73;;
48006;SDS011;33771;48.180;11.400;2022-12-18T12:56:21;57.27;;;25.67;;
48006;SDS011;33771;48.180;11.400;2022-12-18T12:58:55;53.80;;;23.47;;
48006;SDS011;33771;48.180;11.400;2022-12-18T13:01:25;46.93;;;22.37;;
48006;SDS011;33771;48.180;11.400;2022-12-18T13:04:27;49.47;;;23.17;;
48006;SDS011;33771;48.180;11.400;2022-12-18T13:07:06;49.10;;;22.43;;
48006;SDS011;33771;48.180;11.400;2022-12-18T13:15:41;47.97;;;23.57;;
48006;SDS011;33771;48.180;11.400;2022-12-18T13:20:48;43.03;;;21.47;;
48006;SDS011;33771;48.180;11.400;2022-12-18T13:23:36;49.58;;;23.42;;
48006;SDS011;33771;48.180;11.400;2022-12-18T13:34:25;53.73;;;23.90;;
48006;SDS011;33771;48.180;11.400;2022-12-18T13:36:55;49.60;;;24.13;;
48006;SDS011;33771;48.180;11.400;2022-12-18T13:39:47;49.27;;;22.67;;
48006;SDS011;33771;48.180;11.400;2022-12-18T13:45:31;46.87;;;22.43;;
48006;SDS011;33771;48.180;11.400;2022-12-18T13:48:29;44.60;;;20.50;;
48006;SDS011;33771;48.180;11.400;2022-12-18T13:50:59;42.13;;;20.30;;
48006;SDS011;33771;48.180;11.400;2022-12-18T13:53:42;45.57;;;21.67;;
48006;SDS011;33771;48.180;11.400;2022-12-18T13:56:26;46.27;;;20.40;;
48006;SDS011;33771;48.180;11.400;2022-12-18T13:59:08;45.97;;;21.70;;
48006;SDS011;33771;48.180;11.400;2022-12-18T14:01:50;48.80;;;20.27;;
48006;SDS011;33771;48.180;11.400;2022-12-18T14:04:20;43.67;;;20.03;;
48006;SDS011;33771;48.180;11.400;2022-12-18T14:09:45;47.37;;;22.13;;
48006;SDS011;33771;48.180;11.400;2022-12-18T14:12:18;49.43;;;25.47;;
48006;SDS011;33771;48.180;11.400;2022-12-18T14:17:59;51.60;;;22.57;;
48006;SDS011;33771;48.180;11.400;2022-12-18T14:20:44;44.97;;;22.07;;
48006;SDS011;33771;48.180;11.400;2022-12-18T14:23:29;45.43;;;20.13;;
48006;SDS011;33771;48.180;11.400;2022-12-18T14:28:55;47.77;;;20.00;;
48006;SDS011;33771;48.180;11.400;2022-12-18T14:31:28;44.33;;;21.53;;
48006;SDS011;33771;48.180;11.400;2022-12-18T14:33:55;49.63;;;21.50;;
48006;SDS011;33771;48.180;11.400;2022-12-18T14:36:22;58.00;;;26.40;;
48006;SDS011;33771;48.180;11.400;2022-12-18T14:38:53;99.57;;;41.63;;
48006;SDS011;33771;48.180;11.400;2022-12-18T14:41:22;83.67;;;32.97;;
48006;SDS011;33771;48.180;11.400;2022-12-18T14:43:50;58.23;;;24.53;;
48006;SDS011;33771;48.180;11.400;2022-12-18T14:46:30;99.47;;;44.03;;
48006;SDS011;33771;48.180;11.400;2022-12-18T14:52:03;46.90;;;21.70;;
48006;SDS011;33771;48.180;11.400;2022-12-18T14:54:31;49.35;;;22.27;;
48006;SDS011;33771;48.180;11.400;2022-12-18T14:57:16;50.70;;;21.50;;
48006;SDS011;33771;48.180;11.400;2022-12-18T14:59:48;45.87;;;21.13;;
48006;SDS011;33771;48.180;11.400;2022-12-18T15:04:42;48.50;;;21.77;;
48006;SDS011;33771;48.180;11.400;2022-12-18T15:07:22;49.63;;;22.77;;
48006;SDS011;33771;48.180;11.400;2022-12-18T15:18:01;47.97;;;22.97;;
48006;SDS011;33771;48.180;11.400;2022-12-18T15:20:31;54.63;;;23.53;;
48006;SDS011;33771;48.180;11.400;2022-12-18T15:23:04;45.40;;;21.80;;
48006;SDS011;33771;48.180;11.400;2022-12-18T15:25:37;55.93;;;23.40;;
48006;SDS011;33771;48.180;11.400;2022-12-18T15:28:03;48.93;;;22.27;;
48006;SDS011;33771;48.180;11.400;2022-12-18T15:30:40;50.60;;;22.07;;
48006;SDS011;33771;48.180;11.400;2022-12-18T15:33:37;43.08;;;19.10;;
48006;SDS011;33771;48.180;11.400;2022-12-18T15:36:09;49.93;;;22.90;;
48006;SDS011;33771;48.180;11.400;2022-12-18T15:38:36;51.03;;;23.13;;
48006;SDS011;33771;48.180;11.400;2022-12-18T15:41:02;48.30;;;22.77;;
48006;SDS011;33771;48.180;11.400;2022-12-18T15:43:28;50.77;;;23.13;;
48006;SDS011;33771;48.180;11.400;2022-12-18T15:46:21;54.93;;;23.20;;
48006;SDS011;33771;48.180;11.400;2022-12-18T15:48:48;52.73;;;23.03;;
48006;SDS011;33771;48.180;11.400;2022-12-18T15:51:19;54.40;;;23.90;;
48006;SDS011;33771;48.180;11.400;2022-12-18T15:53:58;52.13;;;22.07;;
48006;SDS011;33771;48.180;11.400;2022-12-18T15:56:26;51.00;;;22.67;;
48006;SDS011;33771;48.180;11.400;2022-12-18T15:59:11;53.93;;;24.77;;
48006;SDS011;33771;48.180;11.400;2022-12-18T16:01:42;66.40;;;29.67;;
48006;SDS011;33771;48.180;11.400;2022-12-18T16:04:11;51.27;;;24.53;;
48006;SDS011;33771;48.180;11.400;2022-12-18T16:06:38;56.73;;;24.13;;
48006;SDS011;33771;48.180;11.400;2022-12-18T16:09:04;57.60;;;24.53;;
48006;SDS011;33771;48.180;11.400;2022-12-18T16:11:30;59.03;;;25.10;;
48006;SDS011;33771;48.180;11.400;2022-12-18T16:14:17;56.73;;;26.23;;
48006;SDS011;33771;48.180;11.400;2022-12-18T16:16:45;57.97;;;24.50;;
48006;SDS011;33771;48.180;11.400;2022-12-18T16:19:12;52.33;;;25.03;;
48006;SDS011;33771;48.180;11.400;2022-12-18T16:21:38;54.30;;;22.43;;
48006;SDS011;33771;48.180;11.400;2022-12-18T16:24:04;57.77;;;24.53;;
48006;SDS011;33771;48.180;11.400;2022-12-18T16:26:30;49.80;;;22.43;;
48006;SDS011;33771;48.180;11.400;2022-12-18T16:28:57;53.93;;;23.60;;
48006;SDS011;33771;48.180;11.400;2022-12-18T16:31:22;55.67;;;24.07;;
48006;SDS011;33771;48.180;11.400;2022-12-18T16:33:48;54.27;;;22.93;;
48006;SDS011;33771;48.180;11.400;2022-12-18T16:36:13;55.97;;;24.63;;
48006;SDS011;33771;48.180;11.400;2022-12-18T16:38:39;50.60;;;22.53;;